Time;durP1;ratioP1;P1;durP2;ratioP2;P2;SDS_P1;SDS_P2;PMS_P1;PMS_P2;Temp;Humidity;BMP_temperature;BMP_pressure;BME280_temperature;BME280_humidity;BME280_pressure;Samples;Min_cycle;Max_cycle;Signal;HPM_P1;HPM_P2
2022/01/29 00:01:34;;;;;;;;;;;13.40;95.20;;;;;;5115878;28;20012;-61
2022/01/29 00:04:00;;;;;;;;;;;13.10;94.90;;;;;;5114177;28;20394;-61
2022/01/29 00:06:25;;;;;;;;;;;13.40;95.20;;;;;;5101364;28;20290;-67
2022/01/29 00:08:53;;;;;;;;;;;13.30;95.20;;;;;;5095038;28;20018;-67
2022/01/29 00:11:20;;;;;;;;;;;;;;;;;;5095348;28;19924;-67
2022/01/29 00:13:46;;;;;;;;;;;13.30;95.20;;;;;;5096967;28;19970;-67
2022/01/29 00:16:11;;;;;;;;;;;13.10;95.20;;;;;;5114398;28;19928;-67
2022/01/29 00:18:37;;;;;;;;;;;13.30;95.20;;;;;;5114989;28;19963;-67
2022/01/29 00:21:03;;;;;;;;;;;13.40;95.30;;;;;;5115452;28;20377;-67
2022/01/29 00:23:28;;;;;;;;;;;13.10;95.20;;;;;;5115393;28;19930;-67
2022/01/29 00:25:54;;;;;;;;;;;13.20;95.30;;;;;;5115291;28;20023;-67
2022/01/29 00:28:20;;;;;;;;;;;13.40;95.30;;;;;;5115165;28;19928;-67
2022/01/29 00:30:45;;;;;;;;;;;13.10;95.20;;;;;;5114585;28;19963;-67
2022/01/29 00:33:11;;;;;;;;;;;13.10;95.30;;;;;;5115012;28;19923;-67
2022/01/29 00:35:37;;;;;;;;;;;13.40;95.40;;;;;;5114989;28;19923;-60
2022/01/29 00:38:04;;;;;;;;;;;13.30;95.30;;;;;;5114324;28;19924;-61
2022/01/29 00:40:31;;;;;;;;;;;13.50;95.40;;;;;;5115193;28;19943;-61
2022/01/29 00:42:57;;;;;;;;;;;13.40;95.40;;;;;;5113539;28;19931;-61
2022/01/29 00:45:22;;;;;;;;;;;13.40;95.40;;;;;;5115015;28;19924;-62
2022/01/29 00:47:48;;;;;;;;;;;13.20;95.30;;;;;;5114859;28;20353;-60
2022/01/29 00:50:14;;;;;;;;;;;;;;;;;;5114626;28;20276;-62
2022/01/29 00:52:40;;;;;;;;;;;13.30;95.40;;;;;;5111254;28;19927;-61
2022/01/29 00:55:06;;;;;;;;;;;13.20;95.40;;;;;;5105507;28;19930;-67
2022/01/29 00:57:33;;;;;;;;;;;13.30;95.50;;;;;;5114576;28;19923;-67
2022/01/29 00:59:59;;;;;;;;;;;13.20;95.40;;;;;;5114090;28;19924;-66
2022/01/29 01:02:24;;;;;;;;;;;13.40;95.50;;;;;;5114492;28;19924;-67
2022/01/29 01:04:50;;;;;;;;;;;13.10;95.50;;;;;;5114612;28;19928;-67
2022/01/29 01:07:16;;;;;;;;;;;13.00;95.50;;;;;;5114750;28;19924;-67
2022/01/29 01:09:41;;;;;;;;;;;13.30;95.60;;;;;;5114410;28;19924;-68
2022/01/29 01:12:07;;;;;;;;;;;13.40;95.60;;;;;;5114479;28;20378;-66
2022/01/29 01:14:33;;;;;;;;;;;13.10;95.60;;;;;;5109825;27;19947;-67
2022/01/29 01:16:59;;;;;;;;;;;13.50;95.70;;;;;;5114275;28;19976;-67
2022/01/29 01:19:26;;;;;;;;;;;13.40;95.70;;;;;;5098384;28;19924;-67
2022/01/29 01:21:54;;;;;;;;;;;13.10;95.60;;;;;;5107402;28;19927;-67
2022/01/29 01:24:20;;;;;;;;;;;13.30;95.70;;;;;;5114369;28;20285;-67
2022/01/29 01:26:46;;;;;;;;;;;13.20;95.70;;;;;;5114295;28;19924;-67
2022/01/29 01:29:12;;;;;;;;;;;13.20;95.70;;;;;;5114526;28;19935;-67
2022/01/29 01:31:39;;;;;;;;;;;13.30;95.70;;;;;;5113906;28;19924;-67
2022/01/29 01:34:06;;;;;;;;;;;13.20;95.70;;;;;;5114516;28;19966;-67
2022/01/29 01:36:34;;;;;;;;;;;13.20;95.70;;;;;;5113678;28;19923;-66
2022/01/29 01:39:05;;;;;;;;;;;13.30;95.80;;;;;;5113987;28;20412;-67
2022/01/29 01:41:37;;;;;;;;;;;13.20;95.80;;;;;;5114306;28;19966;-67
2022/01/29 01:44:03;;;;;;;;;;;13.20;95.80;;;;;;5114291;28;19924;-67
2022/01/29 01:46:29;;;;;;;;;;;13.20;95.80;;;;;;5113873;28;19924;-66
2022/01/29 01:48:55;;;;;;;;;;;13.30;95.90;;;;;;5113996;28;19965;-67
2022/01/29 01:51:21;;;;;;;;;;;13.10;95.80;;;;;;5114309;28;20006;-67
2022/01/29 01:53:47;;;;;;;;;;;13.20;95.90;;;;;;5115886;28;19999;-67
2022/01/29 01:56:12;;;;;;;;;;;13.30;95.90;;;;;;5117857;28;19935;-67
2022/01/29 01:58:38;;;;;;;;;;;13.30;95.90;;;;;;5117836;28;20365;-67
2022/01/29 02:01:04;;;;;;;;;;;13.30;95.90;;;;;;5118248;28;19920;-67
2022/01/29 02:03:30;;;;;;;;;;;13.10;95.90;;;;;;5118121;28;19927;-67
2022/01/29 02:05:55;;;;;;;;;;;13.00;95.90;;;;;;5118186;28;19970;-67
2022/01/29 02:08:21;;;;;;;;;;;13.10;95.90;;;;;;5117530;28;19924;-67
2022/01/29 02:10:48;;;;;;;;;;;13.40;96.00;;;;;;5118120;27;19931;-66
2022/01/29 02:13:14;;;;;;;;;;;;;;;;;;5115595;28;19924;-67
2022/01/29 02:15:40;;;;;;;;;;;13.10;96.00;;;;;;5116526;28;19927;-67
2022/01/29 02:18:12;;;;;;;;;;;13.10;96.00;;;;;;5117619;28;19930;-67
2022/01/29 02:20:38;;;;;;;;;;;13.50;96.10;;;;;;5111637;28;19924;-67
2022/01/29 02:23:03;;;;;;;;;;;13.30;96.00;;;;;;5103188;28;19924;-67
2022/01/29 02:25:29;;;;;;;;;;;13.20;96.00;;;;;;5113591;28;19973;-67
2022/01/29 02:27:55;;;;;;;;;;;13.50;96.10;;;;;;5101912;28;20036;-67
2022/01/29 02:30:21;;;;;;;;;;;13.30;96.00;;;;;;5108794;27;20300;-67
2022/01/29 02:32:47;;;;;;;;;;;13.40;96.10;;;;;;5115901;28;19931;-67
2022/01/29 02:35:12;;;;;;;;;;;13.10;96.00;;;;;;5107534;28;19966;-61
2022/01/29 02:37:39;;;;;;;;;;;13.20;96.10;;;;;;5117523;28;19931;-60
2022/01/29 02:40:05;;;;;;;;;;;13.20;96.10;;;;;;5116944;28;20274;-61
2022/01/29 02:42:31;;;;;;;;;;;13.20;96.10;;;;;;5133884;27;19977;-62
2022/01/29 02:44:56;;;;;;;;;;;13.50;96.20;;;;;;5117367;28;19947;-62
2022/01/29 02:47:33;;;;;;;;;;;13.20;96.10;;;;;;5117215;28;19924;-61
2022/01/29 02:49:58;;;;;;;;;;;13.20;96.10;;;;;;5117333;28;19919;-62
2022/01/29 02:52:24;;;;;;;;;;;13.10;96.10;;;;;;5116854;28;20296;-62
2022/01/29 02:54:49;;;;;;;;;;;13.40;96.20;;;;;;5117137;28;19931;-61
2022/01/29 02:57:15;;;;;;;;;;;13.50;96.20;;;;;;5116686;28;20012;-67
2022/01/29 02:59:41;;;;;;;;;;;13.30;96.20;;;;;;5116839;28;19919;-67
2022/01/29 03:02:06;;;;;;;;;;;13.30;96.20;;;;;;5116616;28;19923;-67
2022/01/29 03:04:32;;;;;;;;;;;13.50;96.30;;;;;;5116330;28;20289;-67
2022/01/29 03:06:58;;;;;;;;;;;13.20;96.20;;;;;;5116602;28;19924;-67
2022/01/29 03:09:23;;;;;;;;;;;13.60;96.30;;;;;;5116940;28;19927;-66
2022/01/29 03:11:49;;;;;;;;;;;13.50;96.30;;;;;;5116027;28;19934;-66
2022/01/29 03:14:15;;;;;;;;;;;13.20;96.20;;;;;;5102039;28;19924;-67
2022/01/29 03:16:40;;;;;;;;;;;13.70;96.40;;;;;;5096394;28;19931;-67
2022/01/29 03:19:06;;;;;;;;;;;13.40;96.30;;;;;;5096412;28;20377;-67
2022/01/29 03:21:32;;;;;;;;;;;13.10;96.20;;;;;;5104677;28;19946;-67
2022/01/29 03:23:58;;;;;;;;;;;;;;;;;;5115690;28;19963;-66
2022/01/29 03:26:23;;;;;;;;;;;13.40;96.00;;;;;;5115854;28;19923;-67
2022/01/29 03:28:49;;;;;;;;;;;13.40;96.30;;;;;;5098672;28;20080;-67
2022/01/29 03:31:14;;;;;;;;;;;13.50;96.40;;;;;;5095848;28;19931;-67
2022/01/29 03:33:40;;;;;;;;;;;13.40;96.40;;;;;;5100948;28;19923;-67
2022/01/29 03:36:06;;;;;;;;;;;13.50;96.40;;;;;;5115355;28;19923;-67
2022/01/29 03:38:31;;;;;;;;;;;13.50;96.40;;;;;;5113029;28;19932;-67
2022/01/29 03:40:59;;;;;;;;;;;13.30;96.40;;;;;;5116065;28;19924;-67
2022/01/29 03:43:34;;;;;;;;;;;13.30;96.40;;;;;;5115759;28;20011;-67
2022/01/29 03:46:00;;;;;;;;;;;13.60;96.50;;;;;;5114139;28;19923;-67
2022/01/29 03:48:26;;;;;;;;;;;13.20;96.40;;;;;;5095508;28;19968;-67
2022/01/29 03:50:51;;;;;;;;;;;13.20;96.40;;;;;;5103131;28;19931;-67
2022/01/29 03:53:17;;;;;;;;;;;13.50;96.50;;;;;;5115782;28;19923;-61
2022/01/29 03:55:43;;;;;;;;;;;13.10;96.40;;;;;;5115130;28;19924;-60
2022/01/29 03:58:08;;;;;;;;;;;13.20;96.30;;;;;;5115383;28;19924;-60
2022/01/29 04:00:34;;;;;;;;;;;13.30;96.40;;;;;;5107894;28;20400;-60
2022/01/29 04:03:00;;;;;;;;;;;13.40;96.50;;;;;;5102642;28;19951;-60
2022/01/29 04:05:26;;;;;;;;;;;13.60;96.50;;;;;;5115808;28;19924;-61
2022/01/29 04:07:52;;;;;;;;;;;13.60;96.50;;;;;;5115388;28;20326;-61
2022/01/29 04:10:19;;;;;;;;;;;13.20;96.50;;;;;;5115756;28;19997;-61
2022/01/29 04:12:48;;;;;;;;;;;13.70;96.60;;;;;;5115404;28;19924;-62
2022/01/29 04:15:14;;;;;;;;;;;13.30;96.20;;;;;;5115689;28;19977;-62
2022/01/29 04:17:40;;;;;;;;;;;13.60;96.60;;;;;;5114349;28;20265;-61
2022/01/29 04:20:06;;;;;;;;;;;13.40;96.50;;;;;;5115641;28;20015;-61
2022/01/29 04:22:31;;;;;;;;;;;13.70;96.60;;;;;;5115288;28;20346;-61
2022/01/29 04:24:57;;;;;;;;;;;13.50;96.60;;;;;;5115075;28;19924;-62
2022/01/29 04:27:32;;;;;;;;;;;13.30;96.50;;;;;;5114918;28;19932;-61
2022/01/29 04:30:01;;;;;;;;;;;13.40;96.60;;;;;;5115269;28;20019;-60
2022/01/29 04:32:54;;;;;;;;;;;13.40;96.60;;;;;;5115265;28;20285;-61
2022/01/29 04:35:12;;;;;;;;;;;13.50;96.60;;;;;;5114704;28;20430;-60
2022/01/29 04:37:38;;;;;;;;;;;13.40;96.60;;;;;;5114384;28;19923;-61
2022/01/29 04:40:03;;;;;;;;;;;13.40;96.60;;;;;;5114403;28;19924;-61
2022/01/29 04:42:29;;;;;;;;;;;;;;;;;;5114483;28;19987;-61
2022/01/29 04:44:55;;;;;;;;;;;13.60;96.70;;;;;;5114568;28;19924;-61
2022/01/29 04:47:21;;;;;;;;;;;13.40;96.60;;;;;;5114747;28;19924;-60
2022/01/29 04:49:46;;;;;;;;;;;13.40;96.70;;;;;;5114453;28;19920;-60
2022/01/29 04:52:12;;;;;;;;;;;13.60;96.70;;;;;;5114653;28;20404;-61
2022/01/29 04:54:37;;;;;;;;;;;13.20;96.40;;;;;;5112546;28;20046;-62
2022/01/29 04:57:03;;;;;;;;;;;;;;;;;;5114057;28;19924;-62
2022/01/29 04:59:29;;;;;;;;;;;13.40;96.70;;;;;;5113410;28;19934;-64
2022/01/29 05:01:55;;;;;;;;;;;13.30;96.70;;;;;;5114477;28;19920;-61
2022/01/29 05:04:20;;;;;;;;;;;13.50;96.70;;;;;;5114234;28;19986;-61
2022/01/29 05:06:46;;;;;;;;;;;13.40;96.70;;;;;;5114429;28;20377;-62
2022/01/29 05:09:12;;;;;;;;;;;13.30;96.70;;;;;;5113017;28;19928;-60
2022/01/29 05:11:38;;;;;;;;;;;13.60;96.80;;;;;;5113858;28;19924;-62
2022/01/29 05:14:08;;;;;;;;;;;;;;;;;;5112601;28;19985;-60
2022/01/29 05:27:12;;;;;;;;;;;13.60;96.80;;;;;;5111476;28;19932;-67
2022/01/29 05:29:38;;;;;;;;;;;13.30;96.80;;;;;;5119812;28;19927;-67
2022/01/29 05:32:04;;;;;;;;;;;13.40;96.80;;;;;;5120037;27;19969;-67
2022/01/29 05:34:30;;;;;;;;;;;13.80;96.90;;;;;;5120565;28;19919;-67
2022/01/29 05:36:56;;;;;;;;;;;;;;;;;;5120532;28;20014;-66
2022/01/29 05:39:22;;;;;;;;;;;13.60;96.90;;;;;;5120817;28;19920;-67
2022/01/29 05:41:48;;;;;;;;;;;;;;;;;;5119888;27;19923;-67
2022/01/29 05:44:13;;;;;;;;;;;13.40;96.90;;;;;;5120273;27;19931;-67
2022/01/29 05:46:39;;;;;;;;;;;13.50;96.90;;;;;;5119641;28;19928;-67
2022/01/29 05:49:05;;;;;;;;;;;13.50;96.90;;;;;;5119987;27;19931;-66
2022/01/29 05:51:31;;;;;;;;;;;13.60;96.90;;;;;;5120514;27;19968;-67
2022/01/29 05:53:57;;;;;;;;;;;13.60;96.90;;;;;;5119977;27;19928;-68
2022/01/29 05:56:23;;;;;;;;;;;13.50;96.90;;;;;;5120606;27;20388;-67
2022/01/29 05:58:49;;;;;;;;;;;13.50;96.90;;;;;;5120211;28;19931;-67
2022/01/29 06:01:14;;;;;;;;;;;13.70;97.00;;;;;;5120150;27;19931;-66
2022/01/29 06:03:40;;;;;;;;;;;13.60;96.90;;;;;;5112566;28;20346;-67
2022/01/29 06:06:05;;;;;;;;;;;13.60;96.90;;;;;;5120702;28;19977;-67
2022/01/29 06:08:31;;;;;;;;;;;13.40;96.90;;;;;;5119402;28;19923;-67
2022/01/29 06:10:57;;;;;;;;;;;13.90;97.10;;;;;;5120867;28;20361;-67
2022/01/29 06:13:22;;;;;;;;;;;13.50;97.00;;;;;;5120587;27;19924;-67
2022/01/29 06:15:49;;;;;;;;;;;13.30;96.90;;;;;;5111826;27;19924;-67
2022/01/29 06:18:18;;;;;;;;;;;13.50;97.00;;;;;;5100498;28;20074;-66
2022/01/29 06:20:44;;;;;;;;;;;13.60;97.00;;;;;;5100502;28;20038;-67
2022/01/29 06:23:11;;;;;;;;;;;13.80;96.80;;;;;;5100461;28;20309;-67
2022/01/29 06:25:37;;;;;;;;;;;13.90;97.10;;;;;;5108620;28;20010;-67
2022/01/29 06:28:02;;;;;;;;;;;13.60;97.10;;;;;;5118956;28;20010;-67
2022/01/29 06:30:28;;;;;;;;;;;13.80;97.10;;;;;;5120816;28;20377;-67
2022/01/29 06:32:54;;;;;;;;;;;13.70;97.10;;;;;;5120434;27;20334;-67
2022/01/29 06:35:19;;;;;;;;;;;13.80;97.10;;;;;;5120220;28;19928;-67
2022/01/29 06:37:45;;;;;;;;;;;13.50;97.00;;;;;;5120624;27;19924;-67
2022/01/29 06:40:14;;;;;;;;;;;13.70;97.10;;;;;;5118186;27;19924;-60
2022/01/29 06:42:40;;;;;;;;;;;13.50;97.10;;;;;;5116266;28;20266;-62
2022/01/29 06:45:05;;;;;;;;;;;13.60;97.10;;;;;;5117229;28;19930;-60
2022/01/29 06:47:31;;;;;;;;;;;13.50;97.10;;;;;;5116893;28;20445;-61
2022/01/29 06:49:57;;;;;;;;;;;13.50;97.10;;;;;;5117356;28;19977;-61
2022/01/29 06:52:23;;;;;;;;;;;13.70;97.20;;;;;;5117463;28;19930;-61
2022/01/29 06:54:48;;;;;;;;;;;13.90;97.30;;;;;;5117204;28;19975;-60
2022/01/29 06:57:14;;;;;;;;;;;13.70;97.20;;;;;;5116412;28;19924;-61
2022/01/29 06:59:40;;;;;;;;;;;13.50;97.20;;;;;;5116450;28;19981;-60
2022/01/29 07:02:06;;;;;;;;;;;;;;;;;;5116662;28;19977;-62
2022/01/29 07:04:31;;;;;;;;;;;13.60;97.20;;;;;;5116663;28;19927;-60
2022/01/29 07:06:57;;;;;;;;;;;;;;;;;;5104557;27;20332;-62
2022/01/29 07:09:23;;;;;;;;;;;13.70;97.20;;;;;;5112306;28;20296;-63
2022/01/29 07:11:55;;;;;;;;;;;13.60;97.30;;;;;;5116561;28;19927;-61
2022/01/29 07:14:21;;;;;;;;;;;;;;;;;;5116595;28;19924;-61
2022/01/29 07:16:46;;;;;;;;;;;13.70;97.30;;;;;;5116523;28;19923;-64
2022/01/29 07:19:12;;;;;;;;;;;13.50;97.20;;;;;;5116261;28;19931;-61
2022/01/29 07:21:38;;;;;;;;;;;13.30;97.20;;;;;;5116781;28;19924;-62
2022/01/29 07:24:04;;;;;;;;;;;13.50;97.30;;;;;;5116585;28;20377;-60
2022/01/29 07:26:29;;;;;;;;;;;13.80;97.40;;;;;;5113323;28;19970;-59
2022/01/29 07:28:55;;;;;;;;;;;13.60;97.40;;;;;;5095880;28;19970;-61
2022/01/29 07:31:21;;;;;;;;;;;13.70;97.40;;;;;;5103610;28;20010;-63
2022/01/29 07:33:46;;;;;;;;;;;13.70;97.40;;;;;;5116179;28;19930;-64
2022/01/29 07:36:12;;;;;;;;;;;13.90;97.40;;;;;;5115804;28;19930;-67
2022/01/29 07:38:38;;;;;;;;;;;14.00;97.40;;;;;;5116109;28;20385;-60
2022/01/29 07:41:03;;;;;;;;;;;13.70;97.30;;;;;;5115846;27;19927;-63
2022/01/29 07:43:29;;;;;;;;;;;13.60;97.30;;;;;;5115983;28;19982;-64
2022/01/29 07:45:55;;;;;;;;;;;13.60;97.30;;;;;;5116208;28;20010;-64
2022/01/29 07:48:20;;;;;;;;;;;14.00;97.40;;;;;;5115914;28;19927;-66
2022/01/29 07:50:46;;;;;;;;;;;13.70;97.30;;;;;;5113160;28;20028;-66
2022/01/29 07:53:12;;;;;;;;;;;13.80;97.40;;;;;;5114651;28;19963;-66
2022/01/29 07:55:38;;;;;;;;;;;13.90;97.40;;;;;;5115610;28;19967;-68
2022/01/29 07:58:05;;;;;;;;;;;13.60;97.30;;;;;;5115855;28;19923;-67
2022/01/29 08:00:30;;;;;;;;;;;13.70;97.30;;;;;;5116010;28;19923;-67
2022/01/29 08:02:56;;;;;;;;;;;13.80;97.30;;;;;;5112586;28;20011;-67
2022/01/29 08:05:22;;;;;;;;;;;13.90;97.30;;;;;;5107750;28;19928;-62
2022/01/29 08:07:48;;;;;;;;;;;;;;;;;;5108899;28;19977;-63
2022/01/29 08:10:13;;;;;;;;;;;13.80;97.30;;;;;;5115248;28;19928;-62
2022/01/29 08:12:39;;;;;;;;;;;13.70;97.30;;;;;;5113723;28;19934;-67
2022/01/29 08:15:05;;;;;;;;;;;;;;;;;;5114465;28;19924;-67
2022/01/29 08:17:31;;;;;;;;;;;13.70;97.30;;;;;;5107352;28;20373;-67
2022/01/29 08:19:57;;;;;;;;;;;13.90;97.40;;;;;;5110018;28;19923;-68
2022/01/29 08:22:23;;;;;;;;;;;13.80;97.40;;;;;;5115514;28;19928;-68
2022/01/29 08:24:49;;;;;;;;;;;13.80;97.40;;;;;;5114687;28;20300;-67
2022/01/29 08:27:15;;;;;;;;;;;13.90;97.40;;;;;;5114485;28;20262;-64
2022/01/29 08:29:40;;;;;;;;;;;14.00;97.40;;;;;;5114677;28;19931;-67
2022/01/29 08:32:06;;;;;;;;;;;13.70;97.40;;;;;;5115122;28;19931;-67
2022/01/29 08:34:32;;;;;;;;;;;13.80;97.40;;;;;;5114834;28;20285;-67
2022/01/29 08:37:01;;;;;;;;;;;13.80;97.50;;;;;;5114127;28;19966;-66
2022/01/29 08:39:26;;;;;;;;;;;13.70;97.30;;;;;;5113020;28;19928;-60
2022/01/29 08:41:52;;;;;;;;;;;13.90;97.50;;;;;;5115120;27;20308;-63
2022/01/29 08:44:18;;;;;;;;;;;;;;;;;;5108956;28;19924;-64
2022/01/29 08:46:44;;;;;;;;;;;13.90;97.50;;;;;;5108282;28;19959;-64
2022/01/29 08:49:10;;;;;;;;;;;13.70;97.50;;;;;;5114151;28;19967;-66
2022/01/29 08:51:36;;;;;;;;;;;13.70;97.50;;;;;;5114599;28;19924;-66
2022/01/29 08:54:02;;;;;;;;;;;13.80;97.50;;;;;;5114649;28;19931;-66
2022/01/29 08:56:27;;;;;;;;;;;13.70;97.50;;;;;;5114127;28;19924;-64
2022/01/29 08:58:53;;;;;;;;;;;13.90;97.60;;;;;;5114414;28;19927;-65
2022/01/29 09:01:19;;;;;;;;;;;13.80;97.50;;;;;;5114539;28;19975;-65
2022/01/29 09:03:45;;;;;;;;;;;13.70;97.50;;;;;;5113651;28;20010;-65
2022/01/29 09:06:10;;;;;;;;;;;13.50;97.50;;;;;;5114541;28;20389;-61
2022/01/29 09:08:36;;;;;;;;;;;13.70;97.50;;;;;;5113278;28;19923;-60
2022/01/29 09:11:02;;;;;;;;;;;13.60;97.40;;;;;;5113949;28;19932;-60
2022/01/29 09:13:28;;;;;;;;;;;13.80;97.60;;;;;;5113120;28;19970;-60
2022/01/29 09:15:54;;;;;;;;;;;13.80;97.70;;;;;;5114296;28;19924;-60
2022/01/29 09:18:20;;;;;;;;;;;13.70;97.60;;;;;;5113655;28;19924;-61
2022/01/29 09:20:45;;;;;;;;;;;13.80;97.70;;;;;;5113899;28;19923;-61
2022/01/29 09:23:11;;;;;;;;;;;14.00;97.80;;;;;;5114177;28;19935;-61
2022/01/29 09:25:37;;;;;;;;;;;14.10;97.80;;;;;;5098886;28;19924;-61
2022/01/29 09:28:03;;;;;;;;;;;13.70;97.70;;;;;;5094100;28;19931;-61
2022/01/29 09:30:29;;;;;;;;;;;13.80;97.80;;;;;;5113303;28;19935;-65
2022/01/29 09:32:55;;;;;;;;;;;13.80;97.80;;;;;;5114246;28;19924;-65
2022/01/29 09:35:21;;;;;;;;;;;13.50;97.80;;;;;;5113156;28;19923;-65
2022/01/29 09:37:47;;;;;;;;;;;14.00;97.90;;;;;;5114132;28;19924;-66
2022/01/29 09:40:13;;;;;;;;;;;13.70;97.80;;;;;;5113494;28;19924;-62
2022/01/29 09:42:44;;;;;;;;;;;13.80;97.90;;;;;;5114337;28;20385;-66
2022/01/29 09:45:13;;;;;;;;;;;13.70;97.80;;;;;;5113463;28;19928;-65
2022/01/29 09:47:40;;;;;;;;;;;13.70;97.80;;;;;;5114075;28;19928;-60
2022/01/29 09:50:06;;;;;;;;;;;13.70;97.80;;;;;;5113955;28;19930;-67
2022/01/29 09:52:32;;;;;;;;;;;14.00;97.90;;;;;;5113887;28;20338;-64
2022/01/29 09:54:58;;;;;;;;;;;13.70;97.80;;;;;;5113886;28;19924;-64
2022/01/29 09:57:23;;;;;;;;;;;13.60;97.80;;;;;;5113944;28;19930;-66
2022/01/29 09:59:50;;;;;;;;;;;13.80;97.90;;;;;;5112959;28;20341;-67
2022/01/29 10:02:16;;;;;;;;;;;13.80;97.90;;;;;;5113054;28;20296;-66
2022/01/29 10:04:46;;;;;;;;;;;13.80;97.90;;;;;;5114174;28;19931;-66
2022/01/29 10:07:13;;;;;;;;;;;13.70;97.90;;;;;;5113335;28;19946;-67
2022/01/29 10:09:38;;;;;;;;;;;13.70;97.90;;;;;;5114090;28;19920;-66
2022/01/29 10:12:16;;;;;;;;;;;13.90;97.90;;;;;;5106125;28;20069;-66
2022/01/29 10:14:51;;;;;;;;;;;13.90;97.90;;;;;;5099607;28;19919;-61
2022/01/29 10:17:56;;;;;;;;;;;13.60;97.90;;;;;;5104476;28;20011;-64
2022/01/29 10:20:25;;;;;;;;;;;13.70;97.90;;;;;;5049627;28;19925;-66
2022/01/29 10:22:52;;;;;;;;;;;13.80;98.00;;;;;;5054910;28;20333;-65
2022/01/29 10:25:19;;;;;;;;;;;13.60;97.90;;;;;;5044057;28;19924;-65
2022/01/29 10:28:07;;;;;;;;;;;13.90;98.00;;;;;;5054363;28;19974;-67
2022/01/29 10:30:34;;;;;;;;;;;13.70;98.00;;;;;;5054079;28;19925;-67
2022/01/29 10:33:18;;;;;;;;;;;14.00;98.10;;;;;;5054754;28;19972;-65
2022/01/29 10:35:44;;;;;;;;;;;13.90;98.00;;;;;;5054093;28;20337;-65
2022/01/29 10:38:10;;;;;;;;;;;13.70;98.00;;;;;;5054658;28;19982;-65
2022/01/29 10:40:38;;;;;;;;;;;;;;;;;;5053514;28;19968;-64
2022/01/29 10:43:06;;;;;;;;;;;14.00;98.10;;;;;;5054089;28;19978;-60
2022/01/29 10:45:35;;;;;;;;;;;13.80;98.10;;;;;;5054164;28;19924;-60
2022/01/29 10:48:03;;;;;;;;;;;14.10;98.10;;;;;;5053999;28;19924;-60
2022/01/29 10:50:29;;;;;;;;;;;13.80;98.10;;;;;;5069564;28;19980;-59
2022/01/29 10:52:57;;;;;;;;;;;13.90;98.10;;;;;;5117072;28;19928;-65
2022/01/29 10:55:23;;;;;;;;;;;13.80;98.10;;;;;;5116219;28;19920;-64
2022/01/29 10:57:49;;;;;;;;;;;14.10;98.20;;;;;;5116809;28;20396;-65
2022/01/29 11:00:18;;;;;;;;;;;13.70;98.10;;;;;;5117077;28;19927;-65
2022/01/29 11:02:45;;;;;;;;;;;13.70;98.10;;;;;;5114913;28;19931;-65
2022/01/29 11:05:11;;;;;;;;;;;14.00;98.20;;;;;;5117048;28;19951;-63
2022/01/29 11:07:37;;;;;;;;;;;14.10;98.30;;;;;;5117082;28;19924;-66
2022/01/29 11:10:03;;;;;;;;;;;13.90;98.20;;;;;;5116297;28;19924;-59
2022/01/29 11:12:30;;;;;;;;;;;13.80;98.20;;;;;;5116605;28;20316;-66
2022/01/29 11:14:59;;;;;;;;;;;13.70;98.20;;;;;;5116530;28;19923;-67
2022/01/29 11:17:25;;;;;;;;;;;13.80;98.30;;;;;;5116434;28;19923;-64
2022/01/29 11:19:50;;;;;;;;;;;13.60;98.20;;;;;;5116304;28;19924;-67
2022/01/29 11:22:22;;;;;;;;;;;13.90;98.20;;;;;;5116779;28;20358;-68
2022/01/29 11:24:49;;;;;;;;;;;13.90;98.20;;;;;;5112655;28;20393;-60
2022/01/29 11:27:19;;;;;;;;;;;13.70;98.10;;;;;;5121107;27;20289;-66
2022/01/29 11:30:05;;;;;;;;;;;13.70;98.20;;;;;;5096286;28;20305;-66
2022/01/29 11:32:33;;;;;;;;;;;13.90;98.20;;;;;;5114655;28;20307;-66
2022/01/29 11:35:09;;;;;;;;;;;13.80;98.20;;;;;;5116165;28;19927;-66
2022/01/29 11:37:37;;;;;;;;;;;14.00;98.30;;;;;;5115108;28;20226;-66
2022/01/29 11:40:13;;;;;;;;;;;14.00;98.30;;;;;;5116394;28;19932;-66
2022/01/29 11:42:46;;;;;;;;;;;13.90;98.30;;;;;;5115493;28;20045;-67
2022/01/29 11:45:44;;;;;;;;;;;13.70;98.20;;;;;;5115613;28;19924;-68
2022/01/29 11:48:19;;;;;;;;;;;13.80;98.30;;;;;;5074155;28;19974;-67
2022/01/29 11:50:45;;;;;;;;;;;;;;;;;;5073050;28;20348;-64
2022/01/29 11:53:11;;;;;;;;;;;13.90;98.30;;;;;;5072327;28;19932;-66
2022/01/29 11:55:41;;;;;;;;;;;13.90;98.30;;;;;;5073112;28;20294;-66
2022/01/29 11:58:12;;;;;;;;;;;13.80;98.30;;;;;;5060564;28;19925;-65
2022/01/29 12:00:38;;;;;;;;;;;14.10;98.40;;;;;;5053080;28;20019;-65
2022/01/29 12:03:04;;;;;;;;;;;13.90;98.30;;;;;;5066206;28;19979;-64
2022/01/29 12:05:31;;;;;;;;;;;13.90;98.30;;;;;;5072980;28;19931;-65
2022/01/29 12:08:14;;;;;;;;;;;13.90;98.30;;;;;;5072463;28;19935;-63
2022/01/29 12:10:42;;;;;;;;;;;13.80;98.30;;;;;;5072428;28;20366;-60
2022/01/29 12:13:08;;;;;;;;;;;14.00;98.30;;;;;;5071402;28;19931;-65
2022/01/29 12:15:34;;;;;;;;;;;14.00;98.30;;;;;;5052832;28;19974;-67
2022/01/29 12:18:02;;;;;;;;;;;13.90;98.30;;;;;;5066516;28;19924;-67
2022/01/29 12:20:27;;;;;;;;;;;13.70;98.20;;;;;;5072599;28;19951;-61
2022/01/29 12:23:00;;;;;;;;;;;14.00;98.30;;;;;;5072310;28;19928;-63
2022/01/29 12:25:28;;;;;;;;;;;13.90;98.30;;;;;;5101418;28;19931;-65
2022/01/29 12:27:55;;;;;;;;;;;13.90;98.20;;;;;;5114843;28;19924;-66
2022/01/29 12:30:22;;;;;;;;;;;14.00;98.30;;;;;;5115455;28;20014;-65
2022/01/29 12:33:06;;;;;;;;;;;14.10;98.30;;;;;;5114891;28;19931;-65
2022/01/29 12:35:38;;;;;;;;;;;13.90;98.20;;;;;;5114809;28;19924;-65
2022/01/29 12:38:05;;;;;;;;;;;13.90;98.20;;;;;;5113910;28;19924;-65
2022/01/29 12:40:36;;;;;;;;;;;13.80;98.20;;;;;;5114928;28;19923;-65
2022/01/29 12:43:10;;;;;;;;;;;14.20;98.30;;;;;;5114543;28;19924;-65
2022/01/29 12:45:37;;;;;;;;;;;14.10;98.30;;;;;;5114753;28;20285;-65
2022/01/29 12:48:07;;;;;;;;;;;14.00;98.20;;;;;;5114769;28;19924;-62
2022/01/29 12:50:32;;;;;;;;;;;14.20;98.20;;;;;;5115098;28;19924;-61
2022/01/29 12:53:05;;;;;;;;;;;14.10;98.20;;;;;;5115061;28;19934;-60
2022/01/29 12:55:31;;;;;;;;;;;14.30;98.20;;;;;;5114361;28;19931;-64
2022/01/29 12:57:56;;;;;;;;;;;14.10;98.20;;;;;;5115534;28;19931;-61
2022/01/29 13:00:23;;;;;;;;;;;14.20;98.20;;;;;;5114050;28;19924;-65
2022/01/29 13:02:51;;;;;;;;;;;14.30;98.20;;;;;;5113285;28;19934;-61
2022/01/29 13:05:17;;;;;;;;;;;14.00;98.20;;;;;;5114292;28;19924;-65
2022/01/29 13:07:45;;;;;;;;;;;14.10;98.20;;;;;;5114301;28;19924;-61
2022/01/29 13:10:12;;;;;;;;;;;14.10;98.20;;;;;;5113966;28;19935;-61
2022/01/29 13:12:45;;;;;;;;;;;14.20;98.20;;;;;;5114639;28;19975;-67
2022/01/29 13:15:11;;;;;;;;;;;14.20;98.20;;;;;;5113517;28;19928;-65
2022/01/29 13:17:42;;;;;;;;;;;14.00;98.10;;;;;;5109929;28;19924;-70
2022/01/29 13:20:09;;;;;;;;;;;14.40;98.20;;;;;;5103440;28;19931;-63
2022/01/29 13:22:34;;;;;;;;;;;14.40;97.80;;;;;;5113804;28;19924;-66
2022/01/29 13:25:03;;;;;;;;;;;14.30;98.10;;;;;;5113200;28;19924;-66
2022/01/29 13:27:31;;;;;;;;;;;14.60;97.90;;;;;;5114272;28;20027;-61
2022/01/29 13:30:02;;;;;;;;;;;14.50;98.10;;;;;;5114558;28;20262;-61
2022/01/29 13:32:29;;;;;;;;;;;14.60;98.00;;;;;;5113647;28;20282;-62
2022/01/29 13:34:55;;;;;;;;;;;14.70;98.00;;;;;;5114012;28;19920;-61
2022/01/29 13:37:27;;;;;;;;;;;14.70;98.00;;;;;;5114065;28;19923;-70
2022/01/29 13:39:53;;;;;;;;;;;14.70;98.00;;;;;;5114486;28;20343;-69
2022/01/29 13:42:20;;;;;;;;;;;14.50;97.90;;;;;;5112290;28;19954;-68
2022/01/29 13:45:04;;;;;;;;;;;14.80;97.90;;;;;;5114297;28;20261;-68
2022/01/29 13:47:30;;;;;;;;;;;14.90;97.90;;;;;;5114402;28;19956;-68
2022/01/29 13:49:56;;;;;;;;;;;14.70;97.80;;;;;;5116098;28;19923;-69
2022/01/29 13:52:23;;;;;;;;;;;14.80;97.80;;;;;;5117656;28;20293;-69
2022/01/29 13:54:49;;;;;;;;;;;14.70;97.70;;;;;;5112330;28;19927;-67
2022/01/29 13:57:15;;;;;;;;;;;14.90;97.80;;;;;;5116857;28;19924;-64
2022/01/29 13:59:42;;;;;;;;;;;14.80;97.70;;;;;;5118332;28;19924;-64
2022/01/29 14:02:08;;;;;;;;;;;14.90;97.80;;;;;;5118685;28;20041;-63
2022/01/29 14:04:39;;;;;;;;;;;14.80;97.70;;;;;;5116788;28;20058;-64
2022/01/29 14:07:10;;;;;;;;;;;14.90;97.60;;;;;;5118131;27;19931;-64
2022/01/29 14:09:38;;;;;;;;;;;14.90;97.60;;;;;;5117174;28;20308;-61
2022/01/29 14:12:07;;;;;;;;;;;14.80;97.60;;;;;;5118244;27;19924;-68
2022/01/29 14:14:33;;;;;;;;;;;14.60;97.30;;;;;;5115852;28;19919;-66
2022/01/29 14:17:06;;;;;;;;;;;14.90;97.50;;;;;;5116855;28;20053;-67
2022/01/29 14:19:32;;;;;;;;;;;14.70;97.50;;;;;;5118004;28;19963;-67
2022/01/29 14:21:58;;;;;;;;;;;14.80;97.60;;;;;;5117984;28;19931;-66
2022/01/29 14:24:24;;;;;;;;;;;14.80;97.50;;;;;;5115525;28;20052;-66
2022/01/29 14:26:50;;;;;;;;;;;14.80;97.50;;;;;;5116401;28;20011;-64
2022/01/29 14:29:15;;;;;;;;;;;14.70;97.50;;;;;;5117516;28;19924;-65
2022/01/29 14:31:41;;;;;;;;;;;14.80;97.60;;;;;;5117830;28;19930;-65
2022/01/29 14:34:07;;;;;;;;;;;14.60;97.50;;;;;;5115661;28;20339;-64